createdAt,value
2018-05-03T00:01:06.401Z,101410.22
2018-05-03T00:04:09.880Z,101415.41
2018-05-03T00:07:13.863Z,101415.58
2018-05-03T00:10:18.479Z,101423.22
2018-05-03T00:13:21.799Z,101429.54
2018-05-03T00:16:25.199Z,101430.77
2018-05-03T00:19:28.581Z,101432.35
2018-05-03T00:22:31.940Z,101428.91
2018-05-03T00:25:35.279Z,101432.07
2018-05-03T00:28:38.511Z,101433.80
2018-05-03T00:31:41.884Z,101434.38
2018-05-03T00:34:45.992Z,101437.68
2018-05-03T00:37:49.238Z,101437.74
2018-05-03T00:40:52.524Z,101443.61
2018-05-03T00:43:55.824Z,101447.11
2018-05-03T00:46:59.184Z,101452.04
2018-05-03T00:50:02.581Z,101449.26
2018-05-03T00:53:05.731Z,101450.38
2018-05-03T00:56:09.096Z,101448.38
2018-05-03T00:59:12.467Z,101448.50
2018-05-03T01:02:15.704Z,101451.49
2018-05-03T01:05:19.093Z,101453.34
2018-05-03T01:08:22.669Z,101453.84
2018-05-03T01:11:26.903Z,101454.38
2018-05-03T01:14:30.356Z,101447.98
2018-05-03T01:17:33.636Z,101451.86
2018-05-03T01:20:36.918Z,101447.06
2018-05-03T01:23:40.388Z,101443.54
2018-05-03T01:26:43.641Z,101453.73
2018-05-03T01:29:46.919Z,101456.36
2018-05-03T01:32:50.292Z,101457.52
2018-05-03T01:36:58.171Z,101460.59
2018-05-03T01:40:01.438Z,101461.28
2018-05-03T01:43:04.888Z,101460.34
2018-05-03T01:46:08.268Z,101461.42
2018-05-03T01:49:11.585Z,101463.42
2018-05-03T01:52:15.359Z,101472.60
2018-05-03T01:55:19.252Z,101477.34
2018-05-03T01:58:23.548Z,101482.33
2018-05-03T02:01:27.557Z,101472.67
2018-05-03T02:04:31.555Z,101474.17
2018-05-03T02:07:34.843Z,101471.07
2018-05-03T02:10:38.247Z,101473.94
2018-05-03T02:13:41.840Z,101477.92
2018-05-03T02:16:45.159Z,101479.92
2018-05-03T02:19:48.553Z,101484.56
2018-05-03T02:22:51.936Z,101487.07
2018-05-03T02:25:56.850Z,101484.11
2018-05-03T02:29:00.186Z,101486.98
2018-05-03T02:32:04.403Z,101478.00
2018-05-03T02:35:08.784Z,101473.39
2018-05-03T02:38:12.115Z,101469.17
2018-05-03T02:41:15.515Z,101469.02
2018-05-03T02:44:18.816Z,101466.88
2018-05-03T02:47:22.425Z,101471.73
2018-05-03T02:50:26.345Z,101476.79
2018-05-03T02:53:29.527Z,101483.58
2018-05-03T02:56:32.920Z,101489.15
2018-05-03T02:59:47.567Z,101484.21
2018-05-03T03:04:05.101Z,101484.73
2018-05-03T03:07:33.536Z,101482.30
2018-05-03T03:11:43.281Z,101472.97
2018-05-03T03:16:02.727Z,101470.23
2018-05-03T03:19:49.068Z,101474.28
2018-05-03T03:25:03.570Z,101471.40
2018-05-03T03:29:52.968Z,101489.80
2018-05-03T03:33:07.638Z,101493.73
2018-05-03T03:36:51.164Z,101496.72
2018-05-03T03:41:06.990Z,101497.29
2018-05-03T03:45:13.712Z,101497.98
2018-05-03T03:48:17.015Z,101500.79
2018-05-03T03:51:20.430Z,101508.31
2018-05-03T03:54:23.800Z,101508.55
2018-05-03T03:57:28.052Z,101512.50
2018-05-03T04:00:31.427Z,101508.71
2018-05-03T04:03:34.789Z,101501.76
2018-05-03T04:06:38.031Z,101512.13
2018-05-03T04:09:41.526Z,101518.32
2018-05-03T04:12:44.850Z,101516.98
2018-05-03T04:15:48.099Z,101516.04
2018-05-03T04:19:02.856Z,101515.70
2018-05-03T04:22:17.495Z,101515.24
2018-05-03T04:26:26.304Z,101511.47
2018-05-03T04:29:29.802Z,101515.78
2018-05-03T04:32:33.042Z,101514.02
2018-05-03T04:35:36.230Z,101517.32
2018-05-03T04:38:39.466Z,101515.90
2018-05-03T04:41:42.773Z,101523.12
2018-05-03T04:44:46.207Z,101529.02
2018-05-03T04:47:49.555Z,101538.11
2018-05-03T04:50:52.893Z,101538.45
2018-05-03T04:53:57.020Z,101537.47
2018-05-03T04:57:00.317Z,101539.00
2018-05-03T05:00:03.689Z,101535.94
2018-05-03T05:03:07.065Z,101541.87
2018-05-03T05:06:10.489Z,101542.39
2018-05-03T05:09:13.812Z,101548.25
2018-05-03T05:12:17.143Z,101547.66
2018-05-03T05:15:20.489Z,101549.91
2018-05-03T05:18:23.764Z,101553.67
2018-05-03T05:21:28.207Z,101555.60
2018-05-03T05:24:32.524Z,101558.12
2018-05-03T05:27:35.777Z,101561.50
2018-05-03T05:30:45.285Z,101567.56
2018-05-03T05:33:48.531Z,101571.25
2018-05-03T05:36:51.680Z,101573.51
2018-05-03T05:39:54.981Z,101576.94
2018-05-03T05:42:58.223Z,101575.94
2018-05-03T05:46:02.321Z,101586.56
2018-05-03T05:49:05.544Z,101586.85
2018-05-03T05:52:08.772Z,101591.50
2018-05-03T05:55:11.936Z,101590.38
2018-05-03T05:58:15.120Z,101599.94
2018-05-03T06:01:18.436Z,101601.06
2018-05-03T06:04:21.751Z,101609.86
2018-05-03T06:07:25.039Z,101614.99
2018-05-03T06:10:28.326Z,101619.07
2018-05-03T06:13:31.508Z,101624.55
2018-05-03T06:16:34.772Z,101631.11
2018-05-03T06:19:38.123Z,101636.39
2018-05-03T06:22:41.299Z,101641.63
2018-05-03T06:25:44.499Z,101648.04
2018-05-03T06:28:47.797Z,101652.33
2018-05-03T06:31:50.988Z,101648.20
2018-05-03T06:34:54.189Z,101642.06
2018-05-03T06:37:58.506Z,101643.98
2018-05-03T06:41:01.858Z,101648.54
2018-05-03T06:44:05.137Z,101651.42
2018-05-03T06:47:08.388Z,101654.67
2018-05-03T06:50:11.704Z,101652.19
2018-05-03T06:53:14.843Z,101654.76
2018-05-03T06:56:18.083Z,101653.87
2018-05-03T06:59:21.336Z,101652.43
2018-05-03T07:02:24.683Z,101656.75
2018-05-03T07:05:27.983Z,101667.12
2018-05-03T07:08:31.298Z,101667.94
2018-05-03T07:11:35.492Z,101672.29
2018-05-03T07:14:38.732Z,101674.32
2018-05-03T07:17:41.888Z,101678.99
2018-05-03T07:20:45.183Z,101679.86
2018-05-03T07:23:48.527Z,101684.13
2018-05-03T07:26:51.809Z,101686.20
2018-05-03T07:29:55.119Z,101688.72
2018-05-03T07:32:58.313Z,101687.38
2018-05-03T07:36:01.518Z,101693.63
2018-05-03T07:39:06.436Z,101692.67
2018-05-03T07:42:09.691Z,101697.16
2018-05-03T07:45:13.033Z,101698.87
2018-05-03T07:48:16.304Z,101697.00
2018-05-03T07:51:19.455Z,101706.46
2018-05-03T07:54:22.671Z,101699.84
2018-05-03T07:57:25.907Z,101693.84
2018-05-03T08:00:29.113Z,101700.91
2018-05-03T08:03:33.360Z,101707.20
2018-05-03T08:06:36.760Z,101715.12
2018-05-03T08:09:40.008Z,101706.03
2018-05-03T08:12:43.258Z,101700.79
2018-05-03T08:15:46.599Z,101706.61
2018-05-03T08:18:49.827Z,101709.81
2018-05-03T08:21:53.077Z,101710.39
2018-05-03T08:24:57.388Z,101715.41
2018-05-03T08:28:00.697Z,101722.64
2018-05-03T08:31:05.144Z,101730.77
2018-05-03T08:34:08.689Z,101729.69
2018-05-03T08:37:11.914Z,101725.19
2018-05-03T08:40:15.215Z,101727.22
2018-05-03T08:43:18.476Z,101720.37
2018-05-03T08:46:21.725Z,101723.96
2018-05-03T08:49:24.988Z,101723.86
2018-05-03T08:52:28.318Z,101724.14
2018-05-03T08:55:31.593Z,101717.45
2018-05-03T08:58:36.011Z,101720.33
2018-05-03T09:01:40.332Z,101722.64
2018-05-03T09:04:43.664Z,101730.29
2018-05-03T09:07:46.957Z,101729.65
2018-05-03T09:10:50.201Z,101733.52
2018-05-03T09:13:53.314Z,101744.15
2018-05-03T09:16:56.627Z,101747.60
2018-05-03T09:19:59.943Z,101736.99
2018-05-03T09:23:04.195Z,101735.86
2018-05-03T09:26:07.471Z,101732.77
2018-05-03T09:29:10.752Z,101734.14
2018-05-03T09:32:14.057Z,101744.05
2018-05-03T09:35:17.360Z,101741.85
2018-05-03T09:38:20.657Z,101737.98
2018-05-03T09:41:23.976Z,101740.54
2018-05-03T09:44:27.251Z,101744.04
2018-05-03T09:47:30.412Z,101751.18
2018-05-03T09:50:34.656Z,101744.08
2018-05-03T09:53:38.004Z,101744.30
2018-05-03T09:56:41.246Z,101754.75
2018-05-03T09:59:44.549Z,101748.61
2018-05-03T10:02:47.837Z,101757.30
2018-05-03T10:05:51.151Z,101757.74
2018-05-03T10:08:54.415Z,101759.86
2018-05-03T10:11:57.711Z,101758.61
2018-05-03T10:15:02.517Z,101759.88
2018-05-03T10:18:05.768Z,101760.56
2018-05-03T10:21:09.106Z,101764.31
2018-05-03T10:24:12.380Z,101760.91
2018-05-03T10:27:15.681Z,101757.49
2018-05-03T10:30:19.014Z,101757.88
2018-05-03T10:33:23.280Z,101751.15
2018-05-03T10:36:26.474Z,101749.89
2018-05-03T10:39:29.773Z,101748.98
2018-05-03T10:42:33.476Z,101750.04
2018-05-03T10:45:36.756Z,101746.88
2018-05-03T10:48:40.149Z,101747.35
2018-05-03T10:51:43.333Z,101742.66
2018-05-03T10:54:46.524Z,101734.82
2018-05-03T10:57:49.761Z,101723.98
2018-05-03T11:00:53.064Z,101723.31
2018-05-03T11:03:56.420Z,101722.68
2018-05-03T11:06:59.735Z,101722.92
2018-05-03T11:10:04.483Z,101724.18
2018-05-03T11:13:07.631Z,101714.31
2018-05-03T11:16:10.985Z,101707.27
2018-05-03T11:19:14.278Z,101716.48
2018-05-03T11:22:17.590Z,101713.91
2018-05-03T11:25:20.859Z,101711.83
2018-05-03T11:28:24.152Z,101718.48
2018-05-03T11:31:27.480Z,101714.27
2018-05-03T11:34:30.676Z,101704.12
2018-05-03T11:37:35.302Z,101705.43
2018-05-03T11:40:38.593Z,101703.50
2018-05-03T11:43:41.794Z,101709.39
2018-05-03T11:46:44.957Z,101700.80
2018-05-03T11:49:48.166Z,101700.79
2018-05-03T11:52:51.420Z,101695.27
2018-05-03T11:55:54.668Z,101696.07
2018-05-03T11:58:57.939Z,101691.35
2018-05-03T12:02:01.500Z,101688.60
2018-05-03T12:05:07.373Z,101689.16
2018-05-03T12:08:10.626Z,101697.46
2018-05-03T12:11:13.897Z,101685.71
2018-05-03T12:14:17.076Z,101687.69
2018-05-03T12:17:20.278Z,101683.27
2018-05-03T12:20:23.504Z,101686.69
2018-05-03T12:23:26.803Z,101683.70
2018-05-03T12:26:30.078Z,101678.09
2018-05-03T12:29:34.221Z,101681.83
2018-05-03T12:32:37.457Z,101683.91
2018-05-03T12:35:40.721Z,101682.10
2018-05-03T12:38:44.024Z,101684.10
2018-05-03T12:41:47.336Z,101690.57
2018-05-03T12:44:50.608Z,101682.83
2018-05-03T12:47:54.828Z,101687.99
2018-05-03T12:50:58.092Z,101680.63
2018-05-03T12:54:01.404Z,101682.14
2018-05-03T12:57:05.876Z,101678.32
2018-05-03T13:00:09.112Z,101673.23
2018-05-03T13:03:12.432Z,101672.47
2018-05-03T13:06:15.712Z,101679.45
2018-05-03T13:09:19.027Z,101667.72
2018-05-03T13:12:22.271Z,101667.86
2018-05-03T13:15:25.466Z,101659.94
2018-05-03T13:18:28.721Z,101656.23
2018-05-03T13:21:31.979Z,101659.25
2018-05-03T13:24:35.999Z,101664.55
2018-05-03T13:27:39.357Z,101658.32
2018-05-03T13:30:42.622Z,101655.49
2018-05-03T13:33:45.898Z,101660.08
2018-05-03T13:36:49.146Z,101660.18
2018-05-03T13:39:52.425Z,101661.21
2018-05-03T13:42:55.744Z,101660.61
2018-05-03T13:45:59.148Z,101660.05
2018-05-03T13:49:02.401Z,101648.87
2018-05-03T13:52:06.942Z,101642.72
2018-05-03T13:55:10.089Z,101643.84
2018-05-03T13:58:13.331Z,101650.27
2018-05-03T14:01:16.573Z,101649.75
2018-05-03T14:04:19.846Z,101646.75
2018-05-03T14:07:23.143Z,101640.65
2018-05-03T14:10:26.421Z,101649.80
2018-05-03T14:13:29.704Z,101654.44
2018-05-03T14:16:34.500Z,101649.81
2018-05-03T14:19:37.754Z,101642.02
2018-05-03T14:22:41.050Z,101647.41
2018-05-03T14:25:44.196Z,101642.74
2018-05-03T14:28:48.101Z,101630.88
2018-05-03T14:31:51.461Z,101638.43
2018-05-03T14:34:54.727Z,101635.72
2018-05-03T14:37:58.015Z,101630.32
2018-05-03T14:41:01.354Z,101634.04
2018-05-03T14:44:04.634Z,101634.54
2018-05-03T14:47:08.061Z,101636.59
2018-05-03T14:50:11.332Z,101635.88
2018-05-03T14:53:14.742Z,101636.86
2018-05-03T14:56:18.905Z,101636.15
2018-05-03T14:59:22.093Z,101644.98
2018-05-03T15:02:25.288Z,101649.77
2018-05-03T15:05:28.677Z,101644.16
2018-05-03T15:08:31.925Z,101645.25
2018-05-03T15:11:35.220Z,101644.42
2018-05-03T15:14:39.589Z,101641.21
2018-05-03T15:17:42.834Z,101645.00
2018-05-03T15:20:46.826Z,101641.35
2018-05-03T15:23:50.148Z,101646.64
2018-05-03T15:26:53.517Z,101651.76
2018-05-03T15:29:56.743Z,101657.11
2018-05-03T15:33:00.062Z,101654.07
2018-05-03T15:36:03.391Z,101660.90
2018-05-03T15:39:06.707Z,101665.87
2018-05-03T15:42:09.950Z,101665.20
2018-05-03T15:45:13.253Z,101670.57
2018-05-03T15:48:17.139Z,101666.25
2018-05-03T15:51:20.468Z,101667.99
2018-05-03T15:54:23.639Z,101660.57
2018-05-03T15:57:27.872Z,101665.70
2018-05-03T16:00:31.144Z,101660.35
2018-05-03T16:03:34.469Z,101663.93
2018-05-03T16:06:37.744Z,101660.66
2018-05-03T16:09:40.941Z,101666.99
2018-05-03T16:12:44.267Z,101658.48
2018-05-03T16:15:48.126Z,101652.42
2018-05-03T16:18:51.419Z,101661.34
2018-05-03T16:21:54.639Z,101651.97
2018-05-03T16:24:57.918Z,101649.95
2018-05-03T16:28:01.253Z,101651.73
2018-05-03T16:31:06.536Z,101645.32
2018-05-03T16:34:09.804Z,101650.06
2018-05-03T16:37:13.160Z,101653.18
2018-05-03T16:40:17.059Z,101653.86
2018-05-03T16:43:20.232Z,101655.23
2018-05-03T16:46:23.449Z,101651.56
2018-05-03T16:49:26.722Z,101651.04
2018-05-03T16:52:30.047Z,101655.64
2018-05-03T16:55:33.280Z,101657.81
2018-05-03T16:58:37.600Z,101655.15
2018-05-03T17:01:41.124Z,101662.54
2018-05-03T17:04:44.338Z,101666.06
2018-05-03T17:07:47.573Z,101666.02
2018-05-03T17:10:50.811Z,101663.15
2018-05-03T17:13:55.050Z,101663.08
2018-05-03T17:16:58.290Z,101667.76
2018-05-03T17:20:01.850Z,101673.09
2018-05-03T17:23:05.095Z,101678.09
2018-05-03T17:26:08.373Z,101670.67
2018-05-03T17:29:11.658Z,101678.02
2018-05-03T17:32:14.887Z,101681.09
2018-05-03T17:35:18.227Z,101687.84
2018-05-03T17:38:22.063Z,101693.39
2018-05-03T17:41:25.288Z,101688.19
2018-05-03T17:44:28.907Z,101687.85
2018-05-03T17:47:31.987Z,101693.82
2018-05-03T17:50:35.280Z,101704.90
2018-05-03T17:53:38.685Z,101717.78
2018-05-03T17:56:41.907Z,101718.45
2018-05-03T17:59:45.279Z,101726.77
2018-05-03T18:02:48.571Z,101729.25
2018-05-03T18:05:52.902Z,101732.92
2018-05-03T18:08:56.296Z,101736.33
2018-05-03T18:11:59.617Z,101735.33
2018-05-03T18:15:02.895Z,101738.69
2018-05-03T18:18:06.282Z,101746.94
2018-05-03T18:21:09.620Z,101748.53
2018-05-03T18:24:12.877Z,101755.18
2018-05-03T18:27:16.156Z,101758.90
2018-05-03T18:30:19.500Z,101762.78
2018-05-03T18:33:22.686Z,101762.89
2018-05-03T18:36:26.028Z,101772.24
2018-05-03T18:39:29.360Z,101768.27
2018-05-03T18:42:33.667Z,101774.22
2018-05-03T18:45:37.357Z,101782.34
2018-05-03T18:48:40.719Z,101792.70
2018-05-03T18:51:45.040Z,101797.31
2018-05-03T18:54:48.686Z,101802.32
2018-05-03T18:57:51.943Z,101810.77
2018-05-03T19:00:55.357Z,101815.62
2018-05-03T19:03:58.686Z,101820.44
2018-05-03T19:07:02.019Z,101825.84
2018-05-03T19:10:05.490Z,101830.16
2018-05-03T19:13:08.963Z,101831.14
2018-05-03T19:16:13.112Z,101837.95
2018-05-03T19:19:16.445Z,101837.84
2018-05-03T19:22:19.736Z,101839.24
2018-05-03T19:25:23.144Z,101842.81
2018-05-03T19:28:26.429Z,101844.31
2018-05-03T19:31:29.728Z,101847.64
2018-05-03T19:34:33.098Z,101849.19
2018-05-03T19:37:36.347Z,101855.82
2018-05-03T19:40:39.694Z,101858.29
2018-05-03T19:43:43.950Z,101859.24
2018-05-03T19:46:47.671Z,101861.42
2018-05-03T19:49:51.035Z,101872.72
2018-05-03T19:52:54.620Z,101875.15
2018-05-03T19:55:57.972Z,101877.91
2018-05-03T19:59:01.340Z,101880.73
2018-05-03T20:02:04.688Z,101887.67
2018-05-03T20:05:07.945Z,101890.74
2018-05-03T20:08:11.344Z,101893.61
2018-05-03T20:11:14.901Z,101896.66
2018-05-03T20:14:18.263Z,101899.34
2018-05-03T20:17:21.641Z,101903.52
2018-05-03T20:20:24.960Z,101901.03
2018-05-03T20:23:29.265Z,101899.16
2018-05-03T20:26:32.505Z,101897.01
2018-05-03T20:29:35.853Z,101902.04
2018-05-03T20:32:39.250Z,101903.98
2018-05-03T20:35:44.701Z,101907.44
2018-05-03T20:38:48.066Z,101910.61
2018-05-03T20:41:51.306Z,101905.91
2018-05-03T20:44:54.602Z,101907.25
2018-05-03T20:47:57.775Z,101908.02
2018-05-03T20:51:00.997Z,101912.94
2018-05-03T20:54:04.435Z,101910.97
2018-05-03T20:57:08.078Z,101907.19
2018-05-03T21:00:11.345Z,101909.51
2018-05-03T21:03:14.915Z,101910.01
2018-05-03T21:06:19.139Z,101911.37
2018-05-03T21:09:22.574Z,101909.62
2018-05-03T21:12:25.915Z,101915.74
2018-05-03T21:15:29.167Z,101919.02
2018-05-03T21:18:32.645Z,101920.22
2018-05-03T21:21:36.016Z,101921.45
2018-05-03T21:24:39.304Z,101926.33
2018-05-03T21:27:43.242Z,101927.57
2018-05-03T21:30:46.577Z,101923.20
2018-05-03T21:33:49.853Z,101916.94
2018-05-03T21:36:53.240Z,101919.39
2018-05-03T21:39:56.623Z,101916.12
2018-05-03T21:42:59.921Z,101917.29
2018-05-03T21:46:03.251Z,101916.86
2018-05-03T21:49:06.608Z,101913.67
2018-05-03T21:52:09.977Z,101912.81
2018-05-03T21:55:14.671Z,101916.86
2018-05-03T21:58:18.042Z,101918.35
2018-05-03T22:01:21.333Z,101921.70
2018-05-03T22:04:24.748Z,101920.05
2018-05-03T22:07:28.119Z,101911.82
2018-05-03T22:10:31.458Z,101918.73
2018-05-03T22:13:34.833Z,101921.80
2018-05-03T22:16:38.237Z,101918.99
2018-05-03T22:19:41.524Z,101923.04
2018-05-03T22:22:45.034Z,101924.30
2018-05-03T22:25:48.336Z,101925.80
2018-05-03T22:28:51.654Z,101920.37
2018-05-03T22:31:54.928Z,101930.48
2018-05-03T22:34:58.089Z,101932.60
2018-05-03T22:38:01.416Z,101933.93
2018-05-03T22:41:04.708Z,101932.99
2018-05-03T22:44:08.131Z,101937.22
2018-05-03T22:47:11.355Z,101938.46
2018-05-03T22:50:15.875Z,101937.43
2018-05-03T22:53:19.170Z,101937.27
2018-05-03T22:56:22.634Z,101937.52
2018-05-03T22:59:26.037Z,101940.90
2018-05-03T23:02:29.434Z,101940.30
2018-05-03T23:05:32.697Z,101937.53
2018-05-03T23:08:35.975Z,101938.34
2018-05-03T23:11:39.339Z,101947.18
2018-05-03T23:14:43.247Z,101946.65
2018-05-03T23:17:46.665Z,101954.42
2018-05-03T23:20:50.031Z,101954.03
2018-05-03T23:23:53.295Z,101964.03
2018-05-03T23:26:56.729Z,101964.77
2018-05-03T23:30:00.147Z,101959.30
2018-05-03T23:33:03.427Z,101958.25
2018-05-03T23:36:06.835Z,101956.97
2018-05-03T23:39:10.227Z,101962.43
2018-05-03T23:42:14.440Z,101962.14
2018-05-03T23:45:17.847Z,101961.46
2018-05-03T23:48:21.247Z,101968.50
2018-05-03T23:51:24.547Z,101962.17
2018-05-03T23:54:28.043Z,101972.66
2018-05-03T23:57:31.454Z,101973.41
